sensor_id;sensor_type;location;lat;lon;timestamp;temperature;humidity
20422;DHT22;10370;53.102;18.034;2023-02-18T00:00:11;7.60;99.90
20422;DHT22;10370;53.102;18.034;2023-02-18T00:05:39;7.50;99.90
20422;DHT22;10370;53.102;18.034;2023-02-18T00:11:14;7.40;99.90
20422;DHT22;10370;53.102;18.034;2023-02-18T00:16:40;7.40;99.90
20422;DHT22;10370;53.102;18.034;2023-02-18T00:22:19;7.30;99.90
20422;DHT22;10370;53.102;18.034;2023-02-18T00:27:49;7.20;99.90
20422;DHT22;10370;53.102;18.034;2023-02-18T00:33:15;7.20;99.90
20422;DHT22;10370;53.102;18.034;2023-02-18T00:38:44;7.20;99.90
20422;DHT22;10370;53.102;18.034;2023-02-18T00:44:10;7.20;99.90
20422;DHT22;10370;53.102;18.034;2023-02-18T00:49:38;7.10;99.90
20422;DHT22;10370;53.102;18.034;2023-02-18T00:55:05;7.10;99.90
20422;DHT22;10370;53.102;18.034;2023-02-18T01:00:35;7.10;99.90
20422;DHT22;10370;53.102;18.034;2023-02-18T01:06:11;7.00;99.90
20422;DHT22;10370;53.102;18.034;2023-02-18T01:11:34;7.00;99.90
20422;DHT22;10370;53.102;18.034;2023-02-18T01:17:00;7.00;99.90
20422;DHT22;10370;53.102;18.034;2023-02-18T01:22:23;7.00;99.90
20422;DHT22;10370;53.102;18.034;2023-02-18T01:27:47;7.00;99.90
20422;DHT22;10370;53.102;18.034;2023-02-18T01:33:14;6.90;99.90
20422;DHT22;10370;53.102;18.034;2023-02-18T01:38:40;7.00;99.90
20422;DHT22;10370;53.102;18.034;2023-02-18T01:44:17;6.90;99.90
20422;DHT22;10370;53.102;18.034;2023-02-18T01:49:51;6.80;99.90
20422;DHT22;10370;53.102;18.034;2023-02-18T01:55:16;6.80;99.90
20422;DHT22;10370;53.102;18.034;2023-02-18T02:00:42;6.60;99.90
20422;DHT22;10370;53.102;18.034;2023-02-18T02:06:20;6.60;99.90
20422;DHT22;10370;53.102;18.034;2023-02-18T02:29:00;6.40;99.90
20422;DHT22;10370;53.102;18.034;2023-02-18T02:45:58;6.30;99.90
20422;DHT22;10370;53.102;18.034;2023-02-18T02:51:37;6.20;99.90
20422;DHT22;10370;53.102;18.034;2023-02-18T03:02:49;6.20;99.90
20422;DHT22;10370;53.102;18.034;2023-02-18T03:08:40;6.20;99.90
20422;DHT22;10370;53.102;18.034;2023-02-18T03:14:10;6.20;99.90
20422;DHT22;10370;53.102;18.034;2023-02-18T03:19:44;6.30;99.90
20422;DHT22;10370;53.102;18.034;2023-02-18T03:25:11;6.20;99.90
20422;DHT22;10370;53.102;18.034;2023-02-18T03:30:41;6.40;99.90
20422;DHT22;10370;53.102;18.034;2023-02-18T03:36:07;6.40;99.90
20422;DHT22;10370;53.102;18.034;2023-02-18T03:41:48;6.30;99.90
20422;DHT22;10370;53.102;18.034;2023-02-18T03:47:13;6.10;99.90
20422;DHT22;10370;53.102;18.034;2023-02-18T03:52:41;6.30;99.90
20422;DHT22;10370;53.102;18.034;2023-02-18T03:58:07;6.30;99.90
20422;DHT22;10370;53.102;18.034;2023-02-18T04:03:31;6.20;99.90
20422;DHT22;10370;53.102;18.034;2023-02-18T04:08:55;6.20;99.90
20422;DHT22;10370;53.102;18.034;2023-02-18T04:14:21;6.20;99.90
20422;DHT22;10370;53.102;18.034;2023-02-18T04:19:46;6.10;99.90
20422;DHT22;10370;53.102;18.034;2023-02-18T04:25:10;6.20;99.90
20422;DHT22;10370;53.102;18.034;2023-02-18T04:30:35;6.20;99.90
20422;DHT22;10370;53.102;18.034;2023-02-18T04:36:01;6.10;99.90
20422;DHT22;10370;53.102;18.034;2023-02-18T04:41:26;6.00;99.90
20422;DHT22;10370;53.102;18.034;2023-02-18T04:46:51;6.00;99.90
20422;DHT22;10370;53.102;18.034;2023-02-18T04:52:17;6.10;99.90
20422;DHT22;10370;53.102;18.034;2023-02-18T04:57:38;6.10;99.90
20422;DHT22;10370;53.102;18.034;2023-02-18T05:03:03;6.10;99.90
20422;DHT22;10370;53.102;18.034;2023-02-18T05:08:30;5.90;99.90
20422;DHT22;10370;53.102;18.034;2023-02-18T05:13:55;5.90;99.90
20422;DHT22;10370;53.102;18.034;2023-02-18T05:19:24;5.70;99.90
20422;DHT22;10370;53.102;18.034;2023-02-18T05:24:49;5.70;99.90
20422;DHT22;10370;53.102;18.034;2023-02-18T05:30:16;5.70;99.90
20422;DHT22;10370;53.102;18.034;2023-02-18T05:35:41;5.80;99.90
20422;DHT22;10370;53.102;18.034;2023-02-18T05:41:06;5.60;99.90
20422;DHT22;10370;53.102;18.034;2023-02-18T05:46:32;5.70;99.90
20422;DHT22;10370;53.102;18.034;2023-02-18T05:51:56;5.70;99.90
20422;DHT22;10370;53.102;18.034;2023-02-18T05:57:19;5.60;99.90
20422;DHT22;10370;53.102;18.034;2023-02-18T06:02:44;5.70;99.90
20422;DHT22;10370;53.102;18.034;2023-02-18T06:08:08;5.80;99.90
20422;DHT22;10370;53.102;18.034;2023-02-18T06:13:31;5.80;99.90
20422;DHT22;10370;53.102;18.034;2023-02-18T06:18:54;5.80;99.90
20422;DHT22;10370;53.102;18.034;2023-02-18T06:24:18;5.90;99.90
20422;DHT22;10370;53.102;18.034;2023-02-18T06:29:40;5.90;99.90
20422;DHT22;10370;53.102;18.034;2023-02-18T06:35:06;5.90;99.90
20422;DHT22;10370;53.102;18.034;2023-02-18T06:40:29;5.90;99.90
20422;DHT22;10370;53.102;18.034;2023-02-18T06:45:52;5.80;99.90
20422;DHT22;10370;53.102;18.034;2023-02-18T06:51:16;5.90;99.90
20422;DHT22;10370;53.102;18.034;2023-02-18T06:56:41;5.80;99.90
20422;DHT22;10370;53.102;18.034;2023-02-18T07:02:13;5.90;99.90
20422;DHT22;10370;53.102;18.034;2023-02-18T07:07:37;6.00;99.90
20422;DHT22;10370;53.102;18.034;2023-02-18T07:13:03;6.00;99.90
20422;DHT22;10370;53.102;18.034;2023-02-18T07:18:24;6.00;99.90
20422;DHT22;10370;53.102;18.034;2023-02-18T07:23:47;6.20;99.90
20422;DHT22;10370;53.102;18.034;2023-02-18T07:29:12;6.20;99.90
20422;DHT22;10370;53.102;18.034;2023-02-18T07:34:37;6.20;99.90
20422;DHT22;10370;53.102;18.034;2023-02-18T07:40:05;6.20;99.90
20422;DHT22;10370;53.102;18.034;2023-02-18T07:45:28;6.20;99.90
20422;DHT22;10370;53.102;18.034;2023-02-18T07:50:51;6.20;99.90
20422;DHT22;10370;53.102;18.034;2023-02-18T07:56:16;6.30;99.90
20422;DHT22;10370;53.102;18.034;2023-02-18T08:01:42;6.30;99.90
20422;DHT22;10370;53.102;18.034;2023-02-18T08:07:10;6.20;99.90
20422;DHT22;10370;53.102;18.034;2023-02-18T08:12:36;6.30;99.90
20422;DHT22;10370;53.102;18.034;2023-02-18T08:18:08;6.30;99.90
20422;DHT22;10370;53.102;18.034;2023-02-18T08:23:36;6.50;99.90
20422;DHT22;10370;53.102;18.034;2023-02-18T08:29:01;6.60;99.90
20422;DHT22;10370;53.102;18.034;2023-02-18T08:34:24;6.70;99.90
20422;DHT22;10370;53.102;18.034;2023-02-18T08:39:50;6.70;99.90
20422;DHT22;10370;53.102;18.034;2023-02-18T08:45:13;6.90;99.90
20422;DHT22;10370;53.102;18.034;2023-02-18T08:50:41;6.80;99.90
20422;DHT22;10370;53.102;18.034;2023-02-18T08:56:09;6.80;99.90
20422;DHT22;10370;53.102;18.034;2023-02-18T09:01:35;6.80;99.90
20422;DHT22;10370;53.102;18.034;2023-02-18T09:07:02;6.80;99.90
20422;DHT22;10370;53.102;18.034;2023-02-18T09:12:43;6.80;99.90
20422;DHT22;10370;53.102;18.034;2023-02-18T09:18:04;6.80;99.90
20422;DHT22;10370;53.102;18.034;2023-02-18T09:23:27;6.80;99.90
20422;DHT22;10370;53.102;18.034;2023-02-18T09:28:53;6.90;99.90
20422;DHT22;10370;53.102;18.034;2023-02-18T09:34:18;7.00;99.90
20422;DHT22;10370;53.102;18.034;2023-02-18T09:39:43;7.00;99.90
20422;DHT22;10370;53.102;18.034;2023-02-18T09:45:10;7.10;99.90
20422;DHT22;10370;53.102;18.034;2023-02-18T09:50:35;7.20;99.90
20422;DHT22;10370;53.102;18.034;2023-02-18T09:56:00;7.40;99.90
20422;DHT22;10370;53.102;18.034;2023-02-18T10:01:36;7.40;99.90
20422;DHT22;10370;53.102;18.034;2023-02-18T10:07:02;7.50;99.90
20422;DHT22;10370;53.102;18.034;2023-02-18T10:12:30;7.60;99.90
20422;DHT22;10370;53.102;18.034;2023-02-18T10:17:56;7.70;99.90
20422;DHT22;10370;53.102;18.034;2023-02-18T10:23:20;7.90;99.90
20422;DHT22;10370;53.102;18.034;2023-02-18T10:28:43;7.90;99.90
20422;DHT22;10370;53.102;18.034;2023-02-18T10:51:24;7.40;99.90
20422;DHT22;10370;53.102;18.034;2023-02-18T10:56:52;7.50;99.90
20422;DHT22;10370;53.102;18.034;2023-02-18T11:02:17;7.40;99.90
20422;DHT22;10370;53.102;18.034;2023-02-18T11:07:46;7.60;99.90
20422;DHT22;10370;53.102;18.034;2023-02-18T11:13:12;7.50;99.90
20422;DHT22;10370;53.102;18.034;2023-02-18T11:18:42;7.50;99.90
20422;DHT22;10370;53.102;18.034;2023-02-18T11:24:14;7.70;99.90
20422;DHT22;10370;53.102;18.034;2023-02-18T11:29:39;7.80;99.90
20422;DHT22;10370;53.102;18.034;2023-02-18T11:35:04;7.80;99.90
20422;DHT22;10370;53.102;18.034;2023-02-18T11:40:33;7.80;99.90
20422;DHT22;10370;53.102;18.034;2023-02-18T11:46:12;7.90;99.90
20422;DHT22;10370;53.102;18.034;2023-02-18T11:51:39;7.90;99.90
20422;DHT22;10370;53.102;18.034;2023-02-18T11:57:05;7.90;99.90
20422;DHT22;10370;53.102;18.034;2023-02-18T12:02:37;7.90;99.90
20422;DHT22;10370;53.102;18.034;2023-02-18T12:08:19;7.90;99.90
20422;DHT22;10370;53.102;18.034;2023-02-18T12:13:51;7.70;99.90
20422;DHT22;10370;53.102;18.034;2023-02-18T12:31:41;7.60;99.90
20422;DHT22;10370;53.102;18.034;2023-02-18T13:00:44;7.60;99.90
20422;DHT22;10370;53.102;18.034;2023-02-18T13:17:44;7.70;99.90
20422;DHT22;10370;53.102;18.034;2023-02-18T13:23:12;7.60;99.90
20422;DHT22;10370;53.102;18.034;2023-02-18T13:29:06;7.70;99.90
20422;DHT22;10370;53.102;18.034;2023-02-18T13:40:20;7.60;99.90
20422;DHT22;10370;53.102;18.034;2023-02-18T13:51:43;7.50;99.90
20422;DHT22;10370;53.102;18.034;2023-02-18T13:57:18;7.30;99.90
20422;DHT22;10370;53.102;18.034;2023-02-18T14:08:39;6.60;99.90
20422;DHT22;10370;53.102;18.034;2023-02-18T14:25:40;5.80;99.90
20422;DHT22;10370;53.102;18.034;2023-02-18T14:48:35;5.40;99.90
20422;DHT22;10370;53.102;18.034;2023-02-18T14:53:47;5.40;99.90
20422;DHT22;10370;53.102;18.034;2023-02-18T14:59:12;5.30;99.90
20422;DHT22;10370;53.102;18.034;2023-02-18T15:04:38;5.20;99.90
20422;DHT22;10370;53.102;18.034;2023-02-18T15:10:00;5.20;99.90
20422;DHT22;10370;53.102;18.034;2023-02-18T15:15:28;5.10;99.90
20422;DHT22;10370;53.102;18.034;2023-02-18T15:20:54;5.00;99.90
20422;DHT22;10370;53.102;18.034;2023-02-18T15:26:21;4.90;99.90
20422;DHT22;10370;53.102;18.034;2023-02-18T15:31:49;4.90;99.90
20422;DHT22;10370;53.102;18.034;2023-02-18T15:37:13;4.90;99.90
20422;DHT22;10370;53.102;18.034;2023-02-18T15:42:37;4.80;99.90
20422;DHT22;10370;53.102;18.034;2023-02-18T15:48:02;4.80;99.90
20422;DHT22;10370;53.102;18.034;2023-02-18T15:53:31;4.80;99.90
20422;DHT22;10370;53.102;18.034;2023-02-18T15:59:18;4.80;99.90
20422;DHT22;10370;53.102;18.034;2023-02-18T16:04:45;4.80;99.90
20422;DHT22;10370;53.102;18.034;2023-02-18T16:10:23;4.70;99.90
20422;DHT22;10370;53.102;18.034;2023-02-18T16:15:47;4.50;99.90
20422;DHT22;10370;53.102;18.034;2023-02-18T16:26:42;4.40;99.90
20422;DHT22;10370;53.102;18.034;2023-02-18T16:32:05;4.40;99.90
20422;DHT22;10370;53.102;18.034;2023-02-18T16:37:28;4.30;99.90
20422;DHT22;10370;53.102;18.034;2023-02-18T16:43:05;4.30;99.90
20422;DHT22;10370;53.102;18.034;2023-02-18T16:48:37;4.30;99.90
20422;DHT22;10370;53.102;18.034;2023-02-18T16:54:04;4.30;99.90
20422;DHT22;10370;53.102;18.034;2023-02-18T16:59:27;4.40;99.90
20422;DHT22;10370;53.102;18.034;2023-02-18T17:04:52;4.40;99.90
20422;DHT22;10370;53.102;18.034;2023-02-18T17:10:19;4.40;99.90
20422;DHT22;10370;53.102;18.034;2023-02-18T17:15:43;4.30;99.90
20422;DHT22;10370;53.102;18.034;2023-02-18T17:21:12;4.20;99.90
20422;DHT22;10370;53.102;18.034;2023-02-18T17:26:35;4.30;99.90
20422;DHT22;10370;53.102;18.034;2023-02-18T17:31:59;4.30;99.90
20422;DHT22;10370;53.102;18.034;2023-02-18T17:37:22;4.20;99.90
20422;DHT22;10370;53.102;18.034;2023-02-18T17:42:47;4.10;99.90
20422;DHT22;10370;53.102;18.034;2023-02-18T17:48:08;4.00;99.90
20422;DHT22;10370;53.102;18.034;2023-02-18T17:53:33;4.00;99.90
20422;DHT22;10370;53.102;18.034;2023-02-18T17:58:55;4.10;99.90
20422;DHT22;10370;53.102;18.034;2023-02-18T18:04:20;4.00;99.90
20422;DHT22;10370;53.102;18.034;2023-02-18T18:09:43;4.00;99.90
20422;DHT22;10370;53.102;18.034;2023-02-18T18:20:55;3.90;99.90
20422;DHT22;10370;53.102;18.034;2023-02-18T18:26:21;3.80;99.90
20422;DHT22;10370;53.102;18.034;2023-02-18T18:31:46;3.70;99.90
20422;DHT22;10370;53.102;18.034;2023-02-18T18:37:13;3.60;99.90
20422;DHT22;10370;53.102;18.034;2023-02-18T18:42:41;3.50;99.90
20422;DHT22;10370;53.102;18.034;2023-02-18T18:48:10;3.60;99.90
20422;DHT22;10370;53.102;18.034;2023-02-18T18:53:36;3.60;99.90
20422;DHT22;10370;53.102;18.034;2023-02-18T18:58:59;3.60;99.90
20422;DHT22;10370;53.102;18.034;2023-02-18T19:04:21;3.70;99.90
20422;DHT22;10370;53.102;18.034;2023-02-18T19:09:45;3.80;99.90
20422;DHT22;10370;53.102;18.034;2023-02-18T19:15:08;3.80;99.90
20422;DHT22;10370;53.102;18.034;2023-02-18T19:20:31;3.70;99.90
20422;DHT22;10370;53.102;18.034;2023-02-18T19:25:53;3.80;99.90
20422;DHT22;10370;53.102;18.034;2023-02-18T19:31:16;3.80;99.90
20422;DHT22;10370;53.102;18.034;2023-02-18T19:36:41;3.80;99.90
20422;DHT22;10370;53.102;18.034;2023-02-18T19:42:08;3.90;99.90
20422;DHT22;10370;53.102;18.034;2023-02-18T19:47:32;3.80;99.90
20422;DHT22;10370;53.102;18.034;2023-02-18T19:52:57;3.80;99.90
20422;DHT22;10370;53.102;18.034;2023-02-18T19:58:19;3.70;99.90
20422;DHT22;10370;53.102;18.034;2023-02-18T20:03:43;3.80;99.90
20422;DHT22;10370;53.102;18.034;2023-02-18T20:09:06;4.30;99.90
20422;DHT22;10370;53.102;18.034;2023-02-18T20:14:27;3.80;99.90
20422;DHT22;10370;53.102;18.034;2023-02-18T20:19:54;4.00;99.90
20422;DHT22;10370;53.102;18.034;2023-02-18T20:25:21;3.90;99.90
20422;DHT22;10370;53.102;18.034;2023-02-18T20:30:49;4.00;99.90
20422;DHT22;10370;53.102;18.034;2023-02-18T20:36:16;4.00;99.90
20422;DHT22;10370;53.102;18.034;2023-02-18T20:41:42;4.10;99.90
20422;DHT22;10370;53.102;18.034;2023-02-18T20:47:11;4.00;99.90
20422;DHT22;10370;53.102;18.034;2023-02-18T20:52:41;3.90;99.90
20422;DHT22;10370;53.102;18.034;2023-02-18T20:58:07;3.80;99.90
20422;DHT22;10370;53.102;18.034;2023-02-18T21:03:30;3.80;99.90
20422;DHT22;10370;53.102;18.034;2023-02-18T21:08:55;3.70;99.90
20422;DHT22;10370;53.102;18.034;2023-02-18T21:14:25;3.70;99.90
20422;DHT22;10370;53.102;18.034;2023-02-18T21:19:47;3.80;99.90
20422;DHT22;10370;53.102;18.034;2023-02-18T21:25:13;3.80;99.90
20422;DHT22;10370;53.102;18.034;2023-02-18T21:30:42;3.70;99.90
20422;DHT22;10370;53.102;18.034;2023-02-18T21:36:09;3.70;99.90
20422;DHT22;10370;53.102;18.034;2023-02-18T21:41:34;3.70;99.90
20422;DHT22;10370;53.102;18.034;2023-02-18T21:47:02;3.70;99.90
20422;DHT22;10370;53.102;18.034;2023-02-18T21:52:27;3.60;99.90
20422;DHT22;10370;53.102;18.034;2023-02-18T21:57:53;3.60;99.90
20422;DHT22;10370;53.102;18.034;2023-02-18T22:03:16;3.50;99.90
20422;DHT22;10370;53.102;18.034;2023-02-18T22:08:42;3.50;99.90
20422;DHT22;10370;53.102;18.034;2023-02-18T22:14:05;3.50;99.90
20422;DHT22;10370;53.102;18.034;2023-02-18T22:19:28;3.50;99.90
20422;DHT22;10370;53.102;18.034;2023-02-18T22:24:49;3.50;99.90
20422;DHT22;10370;53.102;18.034;2023-02-18T22:30:11;3.50;99.90
20422;DHT22;10370;53.102;18.034;2023-02-18T22:35:34;3.50;99.90
20422;DHT22;10370;53.102;18.034;2023-02-18T22:41:01;3.50;99.90
20422;DHT22;10370;53.102;18.034;2023-02-18T22:46:27;3.60;99.90
20422;DHT22;10370;53.102;18.034;2023-02-18T22:51:53;3.60;99.90
20422;DHT22;10370;53.102;18.034;2023-02-18T22:57:18;3.70;99.90
20422;DHT22;10370;53.102;18.034;2023-02-18T23:02:48;3.70;99.90
20422;DHT22;10370;53.102;18.034;2023-02-18T23:08:14;3.70;99.90
20422;DHT22;10370;53.102;18.034;2023-02-18T23:13:39;3.70;99.90
20422;DHT22;10370;53.102;18.034;2023-02-18T23:19:03;3.70;99.90
20422;DHT22;10370;53.102;18.034;2023-02-18T23:24:30;3.70;99.90
20422;DHT22;10370;53.102;18.034;2023-02-18T23:29:55;3.60;99.90
20422;DHT22;10370;53.102;18.034;2023-02-18T23:35:21;3.60;99.90
20422;DHT22;10370;53.102;18.034;2023-02-18T23:40:44;3.60;99.90
20422;DHT22;10370;53.102;18.034;2023-02-18T23:46:07;3.60;99.90
20422;DHT22;10370;53.102;18.034;2023-02-18T23:51:32;3.50;99.90
20422;DHT22;10370;53.102;18.034;2023-02-18T23:56:57;3.50;99.90
